sensor_id;sensor_type;location;lat;lon;timestamp;pressure;altitude;pressure_sealevel;temperature;humidity
5651;BME280;40241;52.684;9.758;2022-11-20T00:00:42;101058.22;;;2.24;61.24
5651;BME280;40241;52.684;9.758;2022-11-20T00:03:08;101061.78;;;2.21;61.01
5651;BME280;40241;52.684;9.758;2022-11-20T00:05:33;101052.63;;;2.15;61.40
5651;BME280;40241;52.684;9.758;2022-11-20T00:07:59;101076.22;;;2.18;61.48
5651;BME280;40241;52.684;9.758;2022-11-20T00:10:24;101069.75;;;2.12;61.21
5651;BME280;40241;52.684;9.758;2022-11-20T00:12:50;101054.91;;;2.16;61.56
5651;BME280;40241;52.684;9.758;2022-11-20T00:15:15;101046.09;;;2.12;61.39
5651;BME280;40241;52.684;9.758;2022-11-20T00:17:41;101055.16;;;2.06;61.45
5651;BME280;40241;52.684;9.758;2022-11-20T00:20:07;101103.31;;;2.02;61.66
5651;BME280;40241;52.684;9.758;2022-11-20T00:22:32;101058.53;;;2.10;61.81
5651;BME280;40241;52.684;9.758;2022-11-20T00:24:58;101031.94;;;2.05;61.58
5651;BME280;40241;52.684;9.758;2022-11-20T00:27:23;101077.38;;;2.17;61.45
5651;BME280;40241;52.684;9.758;2022-11-20T00:29:49;101056.78;;;2.19;61.37
5651;BME280;40241;52.684;9.758;2022-11-20T00:32:14;101062.97;;;2.20;61.38
5651;BME280;40241;52.684;9.758;2022-11-20T00:34:40;101047.38;;;2.24;61.61
5651;BME280;40241;52.684;9.758;2022-11-20T00:37:05;101045.31;;;2.28;61.49
5651;BME280;40241;52.684;9.758;2022-11-20T00:39:31;101043.81;;;2.27;61.42
5651;BME280;40241;52.684;9.758;2022-11-20T00:41:56;101034.78;;;2.30;61.57
5651;BME280;40241;52.684;9.758;2022-11-20T00:44:22;101025.88;;;2.29;61.28
5651;BME280;40241;52.684;9.758;2022-11-20T00:46:47;101032.41;;;2.32;61.22
5651;BME280;40241;52.684;9.758;2022-11-20T00:49:13;101037.44;;;2.34;61.51
5651;BME280;40241;52.684;9.758;2022-11-20T00:51:38;101044.38;;;2.35;61.49
5651;BME280;40241;52.684;9.758;2022-11-20T00:54:05;101051.34;;;2.36;61.51
5651;BME280;40241;52.684;9.758;2022-11-20T00:56:31;101034.63;;;2.37;61.50
5651;BME280;40241;52.684;9.758;2022-11-20T00:58:59;101023.44;;;2.35;61.56
5651;BME280;40241;52.684;9.758;2022-11-20T01:01:25;101034.97;;;2.39;61.58
5651;BME280;40241;52.684;9.758;2022-11-20T01:03:52;101037.34;;;2.37;61.33
5651;BME280;40241;52.684;9.758;2022-11-20T01:06:27;101031.06;;;2.40;61.55
5651;BME280;40241;52.684;9.758;2022-11-20T01:08:55;101027.91;;;2.42;61.42
5651;BME280;40241;52.684;9.758;2022-11-20T01:11:25;101029.03;;;2.44;61.51
5651;BME280;40241;52.684;9.758;2022-11-20T01:13:52;101027.03;;;2.45;61.31
5651;BME280;40241;52.684;9.758;2022-11-20T01:16:21;101034.00;;;2.46;61.37
5651;BME280;40241;52.684;9.758;2022-11-20T01:18:53;101013.56;;;2.41;61.16
5651;BME280;40241;52.684;9.758;2022-11-20T01:21:24;101028.25;;;2.44;61.58
5651;BME280;40241;52.684;9.758;2022-11-20T01:23:50;101019.66;;;2.45;61.58
5651;BME280;40241;52.684;9.758;2022-11-20T01:26:28;101016.19;;;2.45;61.57
5651;BME280;40241;52.684;9.758;2022-11-20T01:28:54;101022.38;;;2.45;61.42
5651;BME280;40241;52.684;9.758;2022-11-20T01:31:25;101030.97;;;2.44;61.33
5651;BME280;40241;52.684;9.758;2022-11-20T01:33:54;101014.16;;;2.49;61.38
5651;BME280;40241;52.684;9.758;2022-11-20T01:36:22;101005.59;;;2.50;61.44
5651;BME280;40241;52.684;9.758;2022-11-20T01:38:51;101012.88;;;2.53;61.45
5651;BME280;40241;52.684;9.758;2022-11-20T01:41:17;100991.56;;;2.52;61.56
5651;BME280;40241;52.684;9.758;2022-11-20T01:44:02;100985.72;;;2.53;61.63
5651;BME280;40241;52.684;9.758;2022-11-20T01:46:28;101001.59;;;2.55;61.32
5651;BME280;40241;52.684;9.758;2022-11-20T01:51:24;100993.44;;;2.55;61.31
5651;BME280;40241;52.684;9.758;2022-11-20T01:53:53;100987.56;;;2.56;61.44
5651;BME280;40241;52.684;9.758;2022-11-20T01:56:19;100987.91;;;2.58;61.42
5651;BME280;40241;52.684;9.758;2022-11-20T01:58:51;100986.28;;;2.61;61.16
5651;BME280;40241;52.684;9.758;2022-11-20T02:01:20;101014.66;;;2.60;61.38
5651;BME280;40241;52.684;9.758;2022-11-20T02:03:46;100977.47;;;2.57;61.38
5651;BME280;40241;52.684;9.758;2022-11-20T02:08:51;100990.22;;;2.60;61.44
5651;BME280;40241;52.684;9.758;2022-11-20T02:11:17;100998.69;;;2.62;61.30
5651;BME280;40241;52.684;9.758;2022-11-20T02:13:42;100987.50;;;2.60;61.27
5651;BME280;40241;52.684;9.758;2022-11-20T02:16:14;100976.97;;;2.62;61.30
5651;BME280;40241;52.684;9.758;2022-11-20T02:18:41;100975.75;;;2.63;61.21
5651;BME280;40241;52.684;9.758;2022-11-20T02:24:06;100973.28;;;2.68;61.30
5651;BME280;40241;52.684;9.758;2022-11-20T02:26:38;100994.59;;;2.70;61.38
5651;BME280;40241;52.684;9.758;2022-11-20T02:29:04;100966.97;;;2.71;61.46
5651;BME280;40241;52.684;9.758;2022-11-20T02:31:36;100979.38;;;2.72;61.12
5651;BME280;40241;52.684;9.758;2022-11-20T02:34:02;100974.78;;;2.69;61.33
5651;BME280;40241;52.684;9.758;2022-11-20T02:36:28;100987.19;;;2.70;61.53
5651;BME280;40241;52.684;9.758;2022-11-20T02:38:57;100962.66;;;2.74;61.33
5651;BME280;40241;52.684;9.758;2022-11-20T02:41:30;100960.69;;;2.74;61.36
5651;BME280;40241;52.684;9.758;2022-11-20T02:43:56;100967.63;;;2.75;61.32
5651;BME280;40241;52.684;9.758;2022-11-20T02:46:21;100958.75;;;2.75;61.55
5651;BME280;40241;52.684;9.758;2022-11-20T02:48:47;100954.50;;;2.74;61.25
5651;BME280;40241;52.684;9.758;2022-11-20T02:51:12;100945.91;;;2.75;61.51
5651;BME280;40241;52.684;9.758;2022-11-20T02:53:38;100981.66;;;2.74;61.39
5651;BME280;40241;52.684;9.758;2022-11-20T02:56:04;100947.88;;;2.75;61.42
5651;BME280;40241;52.684;9.758;2022-11-20T02:58:29;100973.75;;;2.79;61.51
5651;BME280;40241;52.684;9.758;2022-11-20T03:00:55;100953.53;;;2.80;61.38
5651;BME280;40241;52.684;9.758;2022-11-20T03:03:20;100941.81;;;2.83;61.37
5651;BME280;40241;52.684;9.758;2022-11-20T03:05:46;100971.69;;;2.83;61.16
5651;BME280;40241;52.684;9.758;2022-11-20T03:08:11;100946.03;;;2.84;61.01
5651;BME280;40241;52.684;9.758;2022-11-20T03:10:37;100956.59;;;2.82;61.38
5651;BME280;40241;52.684;9.758;2022-11-20T03:13:02;100952.69;;;2.83;61.32
5651;BME280;40241;52.684;9.758;2022-11-20T03:15:28;100939.88;;;2.84;61.40
5651;BME280;40241;52.684;9.758;2022-11-20T03:17:54;100931.94;;;2.89;61.40
5651;BME280;40241;52.684;9.758;2022-11-20T03:20:20;100934.97;;;2.91;61.14
5651;BME280;40241;52.684;9.758;2022-11-20T03:22:46;100946.59;;;2.92;61.28
5651;BME280;40241;52.684;9.758;2022-11-20T03:25:11;100938.03;;;2.93;61.41
5651;BME280;40241;52.684;9.758;2022-11-20T03:27:37;100924.44;;;2.93;61.40
5651;BME280;40241;52.684;9.758;2022-11-20T03:30:03;100912.59;;;2.87;61.33
5651;BME280;40241;52.684;9.758;2022-11-20T03:32:28;100919.66;;;2.97;61.35
5651;BME280;40241;52.684;9.758;2022-11-20T03:34:54;100941.38;;;2.97;61.45
5651;BME280;40241;52.684;9.758;2022-11-20T03:37:19;100924.44;;;2.93;61.40
5651;BME280;40241;52.684;9.758;2022-11-20T03:39:45;100930.84;;;2.99;61.28
5651;BME280;40241;52.684;9.758;2022-11-20T03:42:10;100924.56;;;3.02;61.31
5651;BME280;40241;52.684;9.758;2022-11-20T03:44:56;100919.44;;;3.04;61.20
5651;BME280;40241;52.684;9.758;2022-11-20T03:47:21;100934.13;;;3.07;61.24
5651;BME280;40241;52.684;9.758;2022-11-20T03:49:47;100923.91;;;2.98;61.10
5651;BME280;40241;52.684;9.758;2022-11-20T03:52:13;100932.91;;;3.08;61.06
5651;BME280;40241;52.684;9.758;2022-11-20T03:54:38;100915.44;;;3.09;61.11
5651;BME280;40241;52.684;9.758;2022-11-20T03:57:04;100917.06;;;3.07;61.08
5651;BME280;40241;52.684;9.758;2022-11-20T03:59:29;100913.16;;;3.08;61.42
5651;BME280;40241;52.684;9.758;2022-11-20T04:01:55;100907.28;;;3.09;61.50
5651;BME280;40241;52.684;9.758;2022-11-20T04:04:20;100901.06;;;3.09;61.27
5651;BME280;40241;52.684;9.758;2022-11-20T04:06:46;100913.47;;;3.10;61.19
5651;BME280;40241;52.684;9.758;2022-11-20T04:09:12;100916.19;;;3.10;61.31
5651;BME280;40241;52.684;9.758;2022-11-20T04:11:39;100914.56;;;3.12;61.30
5651;BME280;40241;52.684;9.758;2022-11-20T04:14:06;100893.88;;;3.15;61.26
5651;BME280;40241;52.684;9.758;2022-11-20T04:16:37;100908.56;;;3.17;61.16
5651;BME280;40241;52.684;9.758;2022-11-20T04:19:05;100901.94;;;3.18;61.34
5651;BME280;40241;52.684;9.758;2022-11-20T04:21:31;100892.72;;;3.16;61.36
5651;BME280;40241;52.684;9.758;2022-11-20T04:23:57;100915.53;;;3.18;61.24
5651;BME280;40241;52.684;9.758;2022-11-20T04:26:25;100921.50;;;3.13;61.21
5651;BME280;40241;52.684;9.758;2022-11-20T04:28:50;100911.63;;;3.07;61.59
5651;BME280;40241;52.684;9.758;2022-11-20T04:31:20;100891.81;;;3.06;61.62
5651;BME280;40241;52.684;9.758;2022-11-20T04:33:46;100894.88;;;3.08;61.41
5651;BME280;40241;52.684;9.758;2022-11-20T04:36:14;100888.25;;;3.09;61.53
5651;BME280;40241;52.684;9.758;2022-11-20T04:38:40;100898.69;;;3.11;61.54
5651;BME280;40241;52.684;9.758;2022-11-20T04:41:12;100901.41;;;3.11;61.60
5651;BME280;40241;52.684;9.758;2022-11-20T04:43:39;100899.00;;;3.13;61.45
5651;BME280;40241;52.684;9.758;2022-11-20T04:46:05;100898.59;;;3.14;61.53
5651;BME280;40241;52.684;9.758;2022-11-20T04:48:30;100905.13;;;3.17;61.61
5651;BME280;40241;52.684;9.758;2022-11-20T04:50:56;100896.50;;;3.18;61.65
5651;BME280;40241;52.684;9.758;2022-11-20T04:53:22;100891.84;;;3.19;61.56
5651;BME280;40241;52.684;9.758;2022-11-20T04:55:48;100889.13;;;3.19;61.59
5651;BME280;40241;52.684;9.758;2022-11-20T04:58:14;100893.03;;;3.18;61.46
5651;BME280;40241;52.684;9.758;2022-11-20T05:00:40;100900.75;;;3.19;61.33
5651;BME280;40241;52.684;9.758;2022-11-20T05:03:05;100900.00;;;3.19;61.67
5651;BME280;40241;52.684;9.758;2022-11-20T05:05:33;100900.88;;;3.16;61.72
5651;BME280;40241;52.684;9.758;2022-11-20T05:07:59;100899.00;;;3.13;61.53
5651;BME280;40241;52.684;9.758;2022-11-20T05:10:25;100889.13;;;3.19;61.40
5651;BME280;40241;52.684;9.758;2022-11-20T05:12:51;100886.63;;;3.12;61.45
5651;BME280;40241;52.684;9.758;2022-11-20T05:15:16;100882.47;;;3.20;61.58
5651;BME280;40241;52.684;9.758;2022-11-20T05:17:47;100882.47;;;3.20;61.51
5651;BME280;40241;52.684;9.758;2022-11-20T05:20:13;100890.31;;;3.18;61.71
5651;BME280;40241;52.684;9.758;2022-11-20T05:22:39;100888.38;;;3.18;61.61
5651;BME280;40241;52.684;9.758;2022-11-20T05:25:05;100876.28;;;3.19;61.46
5651;BME280;40241;52.684;9.758;2022-11-20T05:27:30;100872.91;;;3.15;61.70
5651;BME280;40241;52.684;9.758;2022-11-20T05:29:56;100877.25;;;3.13;61.37
5651;BME280;40241;52.684;9.758;2022-11-20T05:32:21;100894.88;;;3.08;61.53
5651;BME280;40241;52.684;9.758;2022-11-20T05:34:51;100882.50;;;3.07;61.54
5651;BME280;40241;52.684;9.758;2022-11-20T05:37:16;100871.63;;;3.07;61.53
5651;BME280;40241;52.684;9.758;2022-11-20T05:39:41;100901.19;;;3.05;61.67
5651;BME280;40241;52.684;9.758;2022-11-20T05:42:07;100875.53;;;3.06;61.69
5651;BME280;40241;52.684;9.758;2022-11-20T05:44:51;100870.09;;;3.06;61.69
5651;BME280;40241;52.684;9.758;2022-11-20T05:47:17;100891.09;;;3.06;61.81
5651;BME280;40241;52.684;9.758;2022-11-20T05:49:42;100877.91;;;3.04;61.52
5651;BME280;40241;52.684;9.758;2022-11-20T05:52:07;100884.88;;;3.05;61.52
5651;BME280;40241;52.684;9.758;2022-11-20T05:54:33;100863.59;;;3.03;61.66
5651;BME280;40241;52.684;9.758;2022-11-20T05:56:58;100870.09;;;3.06;61.64
5651;BME280;40241;52.684;9.758;2022-11-20T05:59:24;100855.44;;;3.03;61.61
5651;BME280;40241;52.684;9.758;2022-11-20T06:01:49;100875.97;;;3.04;61.70
5651;BME280;40241;52.684;9.758;2022-11-20T06:04:15;100856.50;;;3.06;61.66
5651;BME280;40241;52.684;9.758;2022-11-20T06:06:40;100847.59;;;3.06;61.54
5651;BME280;40241;52.684;9.758;2022-11-20T06:09:06;100851.72;;;2.97;61.38
5651;BME280;40241;52.684;9.758;2022-11-20T06:11:32;100858.47;;;3.06;61.58
5651;BME280;40241;52.684;9.758;2022-11-20T06:13:57;100878.03;;;3.00;61.41
5651;BME280;40241;52.684;9.758;2022-11-20T06:16:23;100855.66;;;2.96;61.61
5651;BME280;40241;52.684;9.758;2022-11-20T06:18:48;100867.03;;;3.04;61.53
5651;BME280;40241;52.684;9.758;2022-11-20T06:21:17;100852.38;;;3.01;61.69
5651;BME280;40241;52.684;9.758;2022-11-20T06:23:43;100856.28;;;3.00;61.59
5651;BME280;40241;52.684;9.758;2022-11-20T06:26:11;100851.94;;;3.03;61.47
5651;BME280;40241;52.684;9.758;2022-11-20T06:28:37;100869.88;;;3.00;61.62
5651;BME280;40241;52.684;9.758;2022-11-20T06:31:04;100852.38;;;3.01;61.48
5651;BME280;40241;52.684;9.758;2022-11-20T06:33:30;100857.06;;;3.01;61.36
5651;BME280;40241;52.684;9.758;2022-11-20T06:35:59;100844.97;;;3.02;61.55
5651;BME280;40241;52.684;9.758;2022-11-20T06:38:26;100853.13;;;3.02;61.63
5651;BME280;40241;52.684;9.758;2022-11-20T06:40:53;100868.03;;;2.97;61.72
5651;BME280;40241;52.684;9.758;2022-11-20T06:43:18;100849.56;;;2.92;61.55
5651;BME280;40241;52.684;9.758;2022-11-20T06:45:44;100861.28;;;2.89;61.57
5651;BME280;40241;52.684;9.758;2022-11-20T06:48:09;100843.03;;;2.90;61.74
5651;BME280;40241;52.684;9.758;2022-11-20T06:50:38;100838.69;;;2.92;61.84
5651;BME280;40241;52.684;9.758;2022-11-20T06:53:04;100844.88;;;2.93;61.92
5651;BME280;40241;52.684;9.758;2022-11-20T06:55:30;100846.41;;;2.94;61.71
5651;BME280;40241;52.684;9.758;2022-11-20T06:57:56;100852.59;;;2.94;61.58
5651;BME280;40241;52.684;9.758;2022-11-20T07:00:21;100865.41;;;2.94;61.72
5651;BME280;40241;52.684;9.758;2022-11-20T07:02:47;100825.53;;;2.91;61.75
5651;BME280;40241;52.684;9.758;2022-11-20T07:05:13;100842.06;;;2.96;61.71
5651;BME280;40241;52.684;9.758;2022-11-20T07:07:38;100839.66;;;2.98;61.76
5651;BME280;40241;52.684;9.758;2022-11-20T07:10:04;100841.94;;;3.00;61.78
5651;BME280;40241;52.684;9.758;2022-11-20T07:12:30;100830.44;;;2.96;61.54
5651;BME280;40241;52.684;9.758;2022-11-20T07:14:55;100833.91;;;2.96;61.74
5651;BME280;40241;52.684;9.758;2022-11-20T07:17:21;100823.69;;;3.00;61.75
5651;BME280;40241;52.684;9.758;2022-11-20T07:19:47;100817.94;;;2.98;61.74
5651;BME280;40241;52.684;9.758;2022-11-20T07:22:12;100820.97;;;3.00;61.72
5651;BME280;40241;52.684;9.758;2022-11-20T07:24:38;100826.59;;;3.06;61.74
5651;BME280;40241;52.684;9.758;2022-11-20T07:27:04;100834.00;;;3.06;61.66
5651;BME280;40241;52.684;9.758;2022-11-20T07:29:29;100836.72;;;3.06;61.94
5651;BME280;40241;52.684;9.758;2022-11-20T07:31:55;100823.47;;;3.08;61.47
5651;BME280;40241;52.684;9.758;2022-11-20T07:34:21;100833.56;;;3.07;61.80
5651;BME280;40241;52.684;9.758;2022-11-20T07:36:47;100840.50;;;3.08;61.62
5651;BME280;40241;52.684;9.758;2022-11-20T07:39:13;100844.75;;;3.09;61.74
5651;BME280;40241;52.684;9.758;2022-11-20T07:41:38;100891.19;;;3.02;61.67
5651;BME280;40241;52.684;9.758;2022-11-20T07:44:04;100828.00;;;3.11;61.72
5651;BME280;40241;52.684;9.758;2022-11-20T07:46:29;100854.44;;;3.10;61.83
5651;BME280;40241;52.684;9.758;2022-11-20T07:48:55;100829.53;;;3.12;61.64
5651;BME280;40241;52.684;9.758;2022-11-20T07:51:20;100841.94;;;3.13;61.63
5651;BME280;40241;52.684;9.758;2022-11-20T07:53:46;100838.03;;;3.14;61.71
5651;BME280;40241;52.684;9.758;2022-11-20T07:56:11;100833.34;;;3.14;61.73
5651;BME280;40241;52.684;9.758;2022-11-20T07:58:39;100842.59;;;3.17;61.59
5651;BME280;40241;52.684;9.758;2022-11-20T08:01:06;100824.63;;;3.19;61.69
5651;BME280;40241;52.684;9.758;2022-11-20T08:03:33;100825.41;;;3.20;61.62
5651;BME280;40241;52.684;9.758;2022-11-20T08:06:01;100827.78;;;3.18;61.54
5651;BME280;40241;52.684;9.758;2022-11-20T08:08:27;100843.47;;;3.14;61.63
5651;BME280;40241;52.684;9.758;2022-11-20T08:10:54;100826.63;;;3.19;61.53
5651;BME280;40241;52.684;9.758;2022-11-20T08:13:39;100832.03;;;3.19;61.50
5651;BME280;40241;52.684;9.758;2022-11-20T08:16:23;100816.94;;;3.18;61.52
5651;BME280;40241;52.684;9.758;2022-11-20T08:21:57;100826.81;;;3.24;61.64
5651;BME280;40241;52.684;9.758;2022-11-20T08:24:22;100815.06;;;3.27;61.43
5651;BME280;40241;52.684;9.758;2022-11-20T08:26:48;100824.72;;;3.28;61.56
5651;BME280;40241;52.684;9.758;2022-11-20T08:29:13;100830.50;;;3.30;61.40
5651;BME280;40241;52.684;9.758;2022-11-20T08:31:39;100849.09;;;3.32;61.35
5651;BME280;40241;52.684;9.758;2022-11-20T08:34:04;100824.19;;;3.33;61.40
5651;BME280;40241;52.684;9.758;2022-11-20T08:36:32;100823.31;;;3.36;61.50
5651;BME280;40241;52.684;9.758;2022-11-20T08:38:58;100815.34;;;3.42;61.70
5651;BME280;40241;52.684;9.758;2022-11-20T08:41:24;100799.34;;;3.44;61.55
5651;BME280;40241;52.684;9.758;2022-11-20T08:43:56;100797.91;;;3.52;61.57
5651;BME280;40241;52.684;9.758;2022-11-20T08:46:23;100820.34;;;3.56;61.53
5651;BME280;40241;52.684;9.758;2022-11-20T08:48:49;100843.28;;;3.55;61.29
5651;BME280;40241;52.684;9.758;2022-11-20T08:51:15;100843.06;;;3.62;61.34
5651;BME280;40241;52.684;9.758;2022-11-20T08:53:41;100844.69;;;3.59;61.15
5651;BME280;40241;52.684;9.758;2022-11-20T08:56:07;100852.47;;;3.70;61.10
5651;BME280;40241;52.684;9.758;2022-11-20T08:58:32;100857.38;;;3.75;61.21
5651;BME280;40241;52.684;9.758;2022-11-20T09:00:58;100840.84;;;3.69;61.10
5651;BME280;40241;52.684;9.758;2022-11-20T09:03:23;100847.25;;;3.75;60.96
5651;BME280;40241;52.684;9.758;2022-11-20T09:05:59;100856.47;;;3.78;60.91
5651;BME280;40241;52.684;9.758;2022-11-20T09:08:26;100858.34;;;3.81;60.80
5651;BME280;40241;52.684;9.758;2022-11-20T09:10:53;100849.41;;;3.80;61.03
5651;BME280;40241;52.684;9.758;2022-11-20T09:13:20;100859.88;;;3.82;61.18
5651;BME280;40241;52.684;9.758;2022-11-20T09:15:45;100845.91;;;3.80;60.98
5651;BME280;40241;52.684;9.758;2022-11-20T09:18:11;100866.19;;;3.79;60.79
5651;BME280;40241;52.684;9.758;2022-11-20T09:20:36;100845.91;;;3.80;60.80
5651;BME280;40241;52.684;9.758;2022-11-20T09:23:02;100856.16;;;3.76;60.92
5651;BME280;40241;52.684;9.758;2022-11-20T09:25:27;100858.66;;;3.83;60.76
5651;BME280;40241;52.684;9.758;2022-11-20T09:27:57;100857.31;;;3.88;60.88
5651;BME280;40241;52.684;9.758;2022-11-20T09:30:23;100869.28;;;3.90;61.00
5651;BME280;40241;52.684;9.758;2022-11-20T09:32:48;100856.31;;;3.94;60.99
5651;BME280;40241;52.684;9.758;2022-11-20T09:35:14;100868.44;;;3.93;60.71
5651;BME280;40241;52.684;9.758;2022-11-20T09:37:39;100885.19;;;3.92;60.76
5651;BME280;40241;52.684;9.758;2022-11-20T09:40:06;100846.06;;;3.98;60.63
5651;BME280;40241;52.684;9.758;2022-11-20T09:51:13;100837.47;;;4.00;60.68
5651;BME280;40241;52.684;9.758;2022-11-20T09:56:37;100861.22;;;3.99;60.69
5651;BME280;40241;52.684;9.758;2022-11-20T09:59:06;100863.25;;;4.08;60.68
5651;BME280;40241;52.684;9.758;2022-11-20T10:01:35;100830.03;;;4.13;60.69
5651;BME280;40241;52.684;9.758;2022-11-20T10:04:21;100819.44;;;4.15;60.50
5651;BME280;40241;52.684;9.758;2022-11-20T10:07:11;100825.94;;;4.17;59.91
5651;BME280;40241;52.684;9.758;2022-11-20T10:09:47;100819.00;;;4.16;60.37
5651;BME280;40241;52.684;9.758;2022-11-20T10:15:21;100807.03;;;4.14;59.82
5651;BME280;40241;52.684;9.758;2022-11-20T10:18:18;100807.47;;;4.12;59.91
5651;BME280;40241;52.684;9.758;2022-11-20T10:23:44;100814.72;;;4.15;59.75
5651;BME280;40241;52.684;9.758;2022-11-20T10:26:44;100812.31;;;4.17;59.91
5651;BME280;40241;52.684;9.758;2022-11-20T10:29:35;100810.38;;;4.18;59.66
5651;BME280;40241;52.684;9.758;2022-11-20T10:32:23;100811.13;;;4.18;59.61
5651;BME280;40241;52.684;9.758;2022-11-20T10:35:04;100799.78;;;4.20;59.92
5651;BME280;40241;52.684;9.758;2022-11-20T10:37:34;100807.09;;;4.23;60.17
5651;BME280;40241;52.684;9.758;2022-11-20T10:43:19;100807.56;;;4.30;59.37
5651;BME280;40241;52.684;9.758;2022-11-20T10:46:01;100806.53;;;4.37;59.48
5651;BME280;40241;52.684;9.758;2022-11-20T10:48:31;100829.09;;;4.37;59.90
5651;BME280;40241;52.684;9.758;2022-11-20T10:56:33;100803.13;;;4.45;59.61
5651;BME280;40241;52.684;9.758;2022-11-20T10:59:35;100805.53;;;4.43;58.99
5651;BME280;40241;52.684;9.758;2022-11-20T11:05:08;100814.81;;;4.55;59.59
5651;BME280;40241;52.684;9.758;2022-11-20T11:07:38;100810.44;;;4.57;59.70
5651;BME280;40241;52.684;9.758;2022-11-20T11:10:15;100810.31;;;4.61;59.20
5651;BME280;40241;52.684;9.758;2022-11-20T11:12:50;100791.53;;;4.63;59.23
5651;BME280;40241;52.684;9.758;2022-11-20T11:15:39;100786.75;;;4.67;58.92
5651;BME280;40241;52.684;9.758;2022-11-20T11:18:10;100802.31;;;4.67;59.41
5651;BME280;40241;52.684;9.758;2022-11-20T11:20:36;100786.28;;;4.69;59.24
5651;BME280;40241;52.684;9.758;2022-11-20T11:23:02;100773.84;;;4.68;59.07
5651;BME280;40241;52.684;9.758;2022-11-20T11:25:34;100786.75;;;4.67;59.30
5651;BME280;40241;52.684;9.758;2022-11-20T11:30:29;100787.47;;;4.68;59.55
5651;BME280;40241;52.684;9.758;2022-11-20T11:33:03;100785.41;;;4.72;59.34
5651;BME280;40241;52.684;9.758;2022-11-20T11:35:30;100778.72;;;4.73;59.42
5651;BME280;40241;52.684;9.758;2022-11-20T11:38:07;100784.94;;;4.73;59.32
5651;BME280;40241;52.684;9.758;2022-11-20T11:40:38;100782.97;;;4.74;59.52
5651;BME280;40241;52.684;9.758;2022-11-20T11:43:06;100786.00;;;4.76;59.28
5651;BME280;40241;52.684;9.758;2022-11-20T11:45:54;100799.91;;;4.69;59.29
5651;BME280;40241;52.684;9.758;2022-11-20T11:48:20;100786.91;;;4.73;59.55
5651;BME280;40241;52.684;9.758;2022-11-20T11:50:50;100785.09;;;4.79;58.96
5651;BME280;40241;52.684;9.758;2022-11-20T11:53:19;100788.91;;;4.81;59.27
5651;BME280;40241;52.684;9.758;2022-11-20T11:55:49;100785.72;;;4.83;59.04
5651;BME280;40241;52.684;9.758;2022-11-20T12:01:43;100779.34;;;4.77;59.10
5651;BME280;40241;52.684;9.758;2022-11-20T12:03:42;100789.34;;;4.80;58.90
5651;BME280;40241;52.684;9.758;2022-11-20T12:06:14;100775.41;;;4.78;59.24
5651;BME280;40241;52.684;9.758;2022-11-20T12:14:18;100775.13;;;4.76;58.81
5651;BME280;40241;52.684;9.758;2022-11-20T12:16:49;100777.84;;;4.76;59.05
5651;BME280;40241;52.684;9.758;2022-11-20T12:19:15;100779.66;;;4.79;58.93
5651;BME280;40241;52.684;9.758;2022-11-20T12:22:07;100767.81;;;4.73;58.09
5651;BME280;40241;52.684;9.758;2022-11-20T12:25:02;100764.78;;;4.71;58.42
5651;BME280;40241;52.684;9.758;2022-11-20T12:28:01;100765.38;;;4.66;58.53
5651;BME280;40241;52.684;9.758;2022-11-20T12:30:33;100764.63;;;4.65;59.06
5651;BME280;40241;52.684;9.758;2022-11-20T12:45:07;100754.78;;;4.68;58.95
5651;BME280;40241;52.684;9.758;2022-11-20T12:59:00;100760.75;;;4.44;59.31
5651;BME280;40241;52.684;9.758;2022-11-20T13:06:38;100760.84;;;4.32;59.87
5651;BME280;40241;52.684;9.758;2022-11-20T13:09:08;100759.47;;;4.27;59.94
5651;BME280;40241;52.684;9.758;2022-11-20T13:11:51;100748.56;;;4.27;59.90
5651;BME280;40241;52.684;9.758;2022-11-20T13:14:31;100744.63;;;4.28;59.89
5651;BME280;40241;52.684;9.758;2022-11-20T13:17:09;100748.56;;;4.27;59.80
5651;BME280;40241;52.684;9.758;2022-11-20T13:19:37;100746.31;;;4.26;60.08
5651;BME280;40241;52.684;9.758;2022-11-20T13:22:03;100755.03;;;4.21;59.87
5651;BME280;40241;52.684;9.758;2022-11-20T13:24:30;100753.66;;;4.16;60.06
5651;BME280;40241;52.684;9.758;2022-11-20T13:27:01;100762.69;;;4.13;60.18
5651;BME280;40241;52.684;9.758;2022-11-20T13:29:27;100745.63;;;4.13;60.24
5651;BME280;40241;52.684;9.758;2022-11-20T13:32:22;100770.22;;;4.09;60.22
5651;BME280;40241;52.684;9.758;2022-11-20T13:34:57;100756.19;;;4.11;60.40
5651;BME280;40241;52.684;9.758;2022-11-20T13:37:35;100738.34;;;4.10;60.39
5651;BME280;40241;52.684;9.758;2022-11-20T13:42:36;100726.56;;;4.13;60.63
5651;BME280;40241;52.684;9.758;2022-11-20T13:45:09;100729.72;;;4.11;60.47
5651;BME280;40241;52.684;9.758;2022-11-20T13:47:36;100742.75;;;4.16;60.54
5651;BME280;40241;52.684;9.758;2022-11-20T13:50:03;100724.00;;;4.18;60.63
5651;BME280;40241;52.684;9.758;2022-11-20T13:55:45;100729.78;;;4.20;60.45
5651;BME280;40241;52.684;9.758;2022-11-20T14:00:58;100720.53;;;4.18;60.34
5651;BME280;40241;52.684;9.758;2022-11-20T14:03:29;100731.72;;;4.20;60.60
5651;BME280;40241;52.684;9.758;2022-11-20T14:05:59;100732.34;;;4.24;60.52
5651;BME280;40241;52.684;9.758;2022-11-20T14:08:43;100748.69;;;4.24;60.85
5651;BME280;40241;52.684;9.758;2022-11-20T14:11:19;100744.00;;;4.24;60.54
5651;BME280;40241;52.684;9.758;2022-11-20T14:16:38;100716.56;;;4.10;60.54
5651;BME280;40241;52.684;9.758;2022-11-20T14:21:46;100736.06;;;4.08;60.66
5651;BME280;40241;52.684;9.758;2022-11-20T14:24:13;100715.78;;;4.09;60.75
5651;BME280;40241;52.684;9.758;2022-11-20T14:26:45;100727.91;;;4.08;60.64
5651;BME280;40241;52.684;9.758;2022-11-20T14:29:23;100714.72;;;4.07;60.50
5651;BME280;40241;52.684;9.758;2022-11-20T14:31:52;100704.28;;;4.05;60.58
5651;BME280;40241;52.684;9.758;2022-11-20T14:34:22;100716.69;;;4.06;60.69
5651;BME280;40241;52.684;9.758;2022-11-20T14:36:50;100701.88;;;4.07;60.55
5651;BME280;40241;52.684;9.758;2022-11-20T14:39:21;100698.06;;;4.05;60.60
5651;BME280;40241;52.684;9.758;2022-11-20T14:41:52;100688.72;;;4.06;60.61
5651;BME280;40241;52.684;9.758;2022-11-20T14:44:20;100697.00;;;4.02;60.74
5651;BME280;40241;52.684;9.758;2022-11-20T14:46:47;100697.00;;;4.02;60.61
5651;BME280;40241;52.684;9.758;2022-11-20T14:49:13;100681.25;;;3.97;60.57
5651;BME280;40241;52.684;9.758;2022-11-20T14:51:40;100685.94;;;3.97;60.83